Time;durP1;ratioP1;P1;durP2;ratioP2;P2;SDS_P1;SDS_P2;PMS_P1;PMS_P2;Temp;Humidity;BMP_temperature;BMP_pressure;BME280_temperature;BME280_humidity;BME280_pressure;Samples;Min_cycle;Max_cycle;Signal;HPM_P1;HPM_P2
2021/04/01 00:02:27;;;;;;;15.67;11.00;;;13.60;88.00;;;;;;5092060;28;20197;-74
2021/04/01 00:04:54;;;;;;;18.77;11.37;;;13.60;88.20;;;;;;5092092;28;20183;-75
2021/04/01 00:07:20;;;;;;;15.63;11.73;;;13.50;88.40;;;;;;5091805;28;20408;-75
2021/04/01 00:09:45;;;;;;;17.43;11.23;;;13.50;89.00;;;;;;5092182;28;20396;-75
2021/04/01 00:12:11;;;;;;;16.20;12.07;;;13.50;89.30;;;;;;5092169;28;20525;-75
2021/04/01 00:14:38;;;;;;;16.03;11.93;;;13.40;89.50;;;;;;5091855;28;20177;-75
2021/04/01 00:17:07;;;;;;;19.33;11.43;;;13.50;90.10;;;;;;5091863;28;20601;-75
2021/04/01 00:19:32;;;;;;;16.80;12.20;;;13.40;90.00;;;;;;5091959;28;20976;-75
2021/04/01 00:21:58;;;;;;;16.17;11.70;;;13.40;90.00;;;;;;5092028;28;20498;-75
2021/04/01 00:24:23;;;;;;;16.30;10.50;;;13.40;90.10;;;;;;5091916;28;20165;-73
2021/04/01 00:26:48;;;;;;;17.00;12.03;;;13.30;90.20;;;;;;5091811;28;20205;-73
2021/04/01 00:29:14;;;;;;;14.37;10.63;;;13.30;90.30;;;;;;5091721;28;20227;-75
2021/04/01 00:31:39;;;;;;;15.57;11.60;;;13.30;90.40;;;;;;5091727;28;20605;-74
2021/04/01 00:34:05;;;;;;;13.87;10.93;;;13.50;90.50;;;;;;5091812;28;20166;-74
2021/04/01 00:36:30;;;;;;;16.20;12.57;;;13.40;90.20;;;;;;5091537;28;20197;-74
2021/04/01 00:38:56;;;;;;;15.40;10.10;;;13.40;90.30;;;;;;5092034;28;20180;-74
2021/04/01 00:41:22;;;;;;;21.53;11.10;;;13.30;90.40;;;;;;5091618;28;20197;-74
2021/04/01 00:43:47;;;;;;;17.43;10.97;;;13.30;90.50;;;;;;5091858;28;20184;-74
2021/04/01 00:46:12;;;;;;;18.03;12.10;;;13.30;90.60;;;;;;5091555;28;20277;-74
2021/04/01 00:48:38;;;;;;;14.43;11.30;;;13.30;90.60;;;;;;5094014;28;20192;-74
2021/04/01 00:51:04;;;;;;;18.27;11.73;;;13.20;90.60;;;;;;5095507;28;20212;-74
2021/04/01 00:53:29;;;;;;;10.80;9.50;;;13.30;90.50;;;;;;5095705;28;20177;-74
2021/04/01 00:55:55;;;;;;;18.90;11.03;;;13.20;90.50;;;;;;5095746;28;20896;-74
2021/04/01 00:58:21;;;;;;;14.73;10.97;;;13.20;90.70;;;;;;5095599;28;20260;-74
2021/04/01 01:00:54;;;;;;;12.40;10.20;;;13.10;90.70;;;;;;5095842;28;20266;-75
2021/04/01 01:03:20;;;;;;;16.90;9.80;;;13.10;90.70;;;;;;5095604;28;20465;-74
2021/04/01 01:05:45;;;;;;;21.77;10.80;;;13.00;90.70;;;;;;5095153;28;20954;-74
2021/04/01 01:08:11;;;;;;;15.37;11.87;;;13.10;90.70;;;;;;5095263;28;20193;-74
2021/04/01 01:10:36;;;;;;;13.20;9.90;;;13.10;90.80;;;;;;5095518;28;20165;-74
2021/04/01 01:13:03;;;;;;;17.20;10.10;;;13.00;90.80;;;;;;5095265;28;20643;-73
2021/04/01 01:15:30;;;;;;;13.33;10.50;;;13.00;90.90;;;;;;5095035;28;20289;-73
2021/04/01 01:17:56;;;;;;;16.87;9.67;;;12.90;90.80;;;;;;5095133;28;20438;-73
2021/04/01 01:20:26;;;;;;;13.00;9.97;;;12.90;90.80;;;;;;5094968;28;20911;-74
2021/04/01 01:22:52;;;;;;;17.13;11.67;;;12.80;90.90;;;;;;5095440;28;20482;-74
2021/04/01 01:25:20;;;;;;;14.93;9.73;;;12.80;91.00;;;;;;5095299;28;20482;-73
2021/04/01 01:27:46;;;;;;;17.73;10.40;;;12.80;91.10;;;;;;5095035;28;20743;-74
2021/04/01 01:30:17;;;;;;;12.93;10.73;;;12.80;91.10;;;;;;5094978;28;20392;-74
2021/04/01 01:32:46;;;;;;;12.80;9.33;;;12.90;91.10;;;;;;5093495;28;20841;-74
2021/04/01 01:35:21;;;;;;;13.73;11.00;;;12.80;91.00;;;;;;5093582;28;20411;-74
2021/04/01 01:37:54;;;;;;;15.20;9.80;;;12.90;90.80;;;;;;5091529;28;20425;-73
2021/04/01 01:40:21;;;;;;;14.83;10.30;;;12.90;90.60;;;;;;5094732;28;20403;-73
2021/04/01 01:42:49;;;;;;;12.27;9.77;;;13.00;90.70;;;;;;5094603;28;20395;-74
2021/04/01 01:45:15;;;;;;;11.60;9.60;;;12.90;90.60;;;;;;5094571;28;20427;-73
2021/04/01 01:47:40;;;;;;;14.30;10.40;;;12.90;90.50;;;;;;5094345;28;20490;-75
2021/04/01 01:50:09;;;;;;;13.47;9.63;;;12.80;90.70;;;;;;5094496;28;20491;-74
2021/04/01 01:52:34;;;;;;;15.40;10.33;;;12.70;90.90;;;;;;5094597;28;20189;-74
2021/04/01 01:54:59;;;;;;;15.23;9.70;;;12.60;91.10;;;;;;5094564;28;20413;-74
2021/04/01 01:57:25;;;;;;;12.43;9.67;;;12.60;91.40;;;;;;5094144;28;20181;-74
2021/04/01 01:59:50;;;;;;;17.40;9.03;;;12.60;91.50;;;;;;5093563;28;20741;-74
2021/04/01 02:02:16;;;;;;;15.10;9.97;;;12.70;91.40;;;;;;5094312;28;20542;-74
2021/04/01 02:04:42;;;;;;;14.97;10.17;;;12.60;91.50;;;;;;5094670;28;20215;-74
2021/04/01 02:07:07;;;;;;;17.87;8.60;;;12.70;91.60;;;;;;5094126;28;20205;-74
2021/04/01 02:09:33;;;;;;;17.77;10.37;;;12.70;91.50;;;;;;5094430;28;20406;-74
2021/04/01 02:11:58;;;;;;;18.20;11.00;;;13.00;91.20;;;;;;5093938;28;20204;-75
2021/04/01 02:14:24;;;;;;;14.47;9.53;;;13.10;90.90;;;;;;5094163;28;20181;-74
2021/04/01 02:16:49;;;;;;;13.87;9.50;;;13.10;91.00;;;;;;5093991;28;20192;-74
2021/04/01 02:19:15;;;;;;;13.93;10.00;;;13.20;90.90;;;;;;5094268;28;20692;-74
2021/04/01 02:21:40;;;;;;;13.87;9.67;;;13.10;90.80;;;;;;5094214;28;20670;-74
2021/04/01 02:24:06;;;;;;;14.10;8.57;;;13.10;90.90;;;;;;5093986;28;20192;-75
2021/04/01 02:26:32;;;;;;;15.50;10.00;;;13.00;91.10;;;;;;5093648;28;20606;-74
2021/04/01 02:28:57;;;;;;;13.83;9.70;;;13.10;90.90;;;;;;5094485;28;20406;-74
2021/04/01 02:31:23;;;;;;;16.30;10.83;;;13.10;90.90;;;;;;5093940;28;20669;-75
2021/04/01 02:33:49;;;;;;;12.10;10.27;;;13.00;91.40;;;;;;5093811;28;20165;-75
2021/04/01 02:36:15;;;;;;;13.07;9.43;;;13.00;91.30;;;;;;5093511;28;20545;-74
2021/04/01 02:38:40;;;;;;;14.53;10.70;;;13.00;91.40;;;;;;5093774;28;20206;-74
2021/04/01 02:41:06;;;;;;;15.23;10.20;;;12.90;91.70;;;;;;5093401;28;20783;-74
2021/04/01 02:43:35;;;;;;;17.37;9.40;;;13.00;91.60;;;;;;5093709;28;20217;-74
2021/04/01 02:46:02;;;;;;;19.37;11.40;;;12.90;91.40;;;;;;5093376;28;20246;-75
2021/04/01 02:48:28;;;;;;;14.50;9.93;;;13.00;91.50;;;;;;5093242;28;20407;-72
2021/04/01 02:50:53;;;;;;;11.93;8.40;;;13.10;91.30;;;;;;5093400;28;20947;-72
2021/04/01 02:53:20;;;;;;;16.50;11.20;;;13.10;91.50;;;;;;5093395;28;20162;-73
2021/04/01 02:55:46;;;;;;;16.60;10.43;;;13.00;91.60;;;;;;5093449;28;20493;-75
2021/04/01 02:58:12;;;;;;;14.60;10.37;;;12.90;91.60;;;;;;5092865;28;20415;-73
2021/04/01 03:00:37;;;;;;;14.63;9.40;;;12.90;91.70;;;;;;5092954;28;20177;-73
2021/04/01 03:03:10;;;;;;;18.57;10.87;;;12.80;92.00;;;;;;5093271;28;20166;-73
2021/04/01 03:05:35;;;;;;;14.27;10.70;;;12.80;92.00;;;;;;5093044;28;20201;-73
2021/04/01 03:08:01;;;;;;;12.53;10.03;;;12.80;92.20;;;;;;5092840;28;20738;-73
2021/04/01 03:10:26;;;;;;;14.13;9.47;;;12.70;92.40;;;;;;5092849;28;20189;-74
2021/04/01 03:12:52;;;;;;;16.43;10.57;;;12.70;92.60;;;;;;5093103;28;20268;-73
2021/04/01 03:15:18;;;;;;;15.20;10.90;;;12.70;92.70;;;;;;5092807;28;20721;-73
2021/04/01 03:17:44;;;;;;;14.20;9.77;;;12.60;92.90;;;;;;5092728;28;20169;-73
2021/04/01 03:20:10;;;;;;;14.70;10.33;;;12.60;93.00;;;;;;5092765;28;20461;-74
2021/04/01 03:22:38;;;;;;;13.13;10.13;;;12.50;93.10;;;;;;5092493;28;20182;-73
2021/04/01 03:25:05;;;;;;;16.40;10.97;;;12.50;93.30;;;;;;5092728;28;20399;-73
2021/04/01 03:27:31;;;;;;;14.23;9.70;;;12.50;93.40;;;;;;5092583;28;20442;-73
2021/04/01 03:30:03;;;;;;;14.47;10.07;;;12.40;93.50;;;;;;5092705;28;20423;-73
2021/04/01 03:32:34;;;;;;;17.20;10.57;;;12.30;93.80;;;;;;5092500;28;20257;-73
2021/04/01 03:35:00;;;;;;;21.60;10.70;;;12.20;93.90;;;;;;5092499;28;20400;-73
2021/04/01 03:37:25;;;;;;;19.57;10.97;;;12.30;94.00;;;;;;5092404;28;20461;-73
2021/04/01 03:39:51;;;;;;;14.70;11.10;;;12.40;94.00;;;;;;5091190;28;20416;-73
2021/04/01 03:42:17;;;;;;;15.23;10.10;;;12.30;93.80;;;;;;5092523;28;20273;-73
2021/04/01 03:44:43;;;;;;;16.93;11.23;;;12.30;94.20;;;;;;5091103;28;20832;-73
2021/04/01 03:47:08;;;;;;;15.37;9.80;;;12.30;94.20;;;;;;5092204;28;20322;-73
2021/04/01 03:49:34;;;;;;;15.30;11.03;;;12.20;94.40;;;;;;5092235;28;20166;-74
2021/04/01 03:51:59;;;;;;;18.13;10.53;;;12.30;94.30;;;;;;5092353;28;20485;-73
2021/04/01 03:54:25;;;;;;;17.27;10.73;;;12.20;94.40;;;;;;5092405;28;20637;-73
2021/04/01 03:56:50;;;;;;;15.80;11.27;;;12.20;94.50;;;;;;5092003;28;20177;-73
2021/04/01 03:59:19;;;;;;;12.90;10.23;;;12.20;94.80;;;;;;5092229;28;20641;-73
2021/04/01 04:04:22;;;;;;;16.90;10.10;;;12.20;95.10;;;;;;5092393;28;20404;-73
2021/04/01 04:09:42;;;;;;;15.80;11.53;;;12.10;95.30;;;;;;5092118;28;20540;-73
2021/04/01 04:14:38;;;;;;;14.13;10.87;;;12.10;95.50;;;;;;5091687;28;20416;-73
2021/04/01 04:17:04;;;;;;;14.70;9.50;;;12.10;95.60;;;;;;5091762;28;20181;-74
2021/04/01 04:19:30;;;;;;;16.33;10.93;;;12.00;95.70;;;;;;5092411;28;20395;-74
2021/04/01 04:21:55;;;;;;;14.57;10.90;;;12.00;95.90;;;;;;5092113;28;20278;-74
2021/04/01 04:24:21;;;;;;;14.40;10.23;;;12.00;96.10;;;;;;5091410;28;20238;-74
2021/04/01 04:26:46;;;;;;;14.50;10.00;;;12.00;96.30;;;;;;5091460;28;20569;-74
2021/04/01 04:29:12;;;;;;;17.90;11.20;;;12.00;96.20;;;;;;5091645;28;20645;-73
2021/04/01 04:31:37;;;;;;;13.23;10.47;;;12.00;96.40;;;;;;5092206;28;20547;-72
2021/04/01 04:34:03;;;;;;;13.80;9.50;;;11.90;96.50;;;;;;5091822;28;20166;-72
2021/04/01 04:36:28;;;;;;;17.00;13.27;;;11.90;96.60;;;;;;5091387;28;20172;-73
2021/04/01 04:38:54;;;;;;;14.70;10.97;;;11.90;96.80;;;;;;5091681;28;20165;-72
2021/04/01 04:41:19;;;;;;;16.60;10.27;;;11.90;97.00;;;;;;5091630;28;20549;-73
2021/04/01 04:43:45;;;;;;;14.07;10.07;;;11.90;97.10;;;;;;5091507;28;20173;-73
2021/04/01 04:46:10;;;;;;;15.07;10.10;;;11.90;97.10;;;;;;5091635;28;20228;-72
2021/04/01 04:48:36;;;;;;;17.37;10.57;;;12.30;98.90;;;;;;5091470;28;20215;-73
2021/04/01 04:51:01;;;;;;;13.83;10.80;;;12.50;98.00;;;;;;5091805;28;20260;-73
2021/04/01 04:53:27;;;;;;;15.83;10.57;;;12.50;98.70;;;;;;5091335;28;20162;-74
2021/04/01 04:56:13;;;;;;;14.40;10.97;;;12.50;97.80;;;;;;5092410;28;20184;-73
2021/04/01 04:58:46;;;;;;;15.77;11.33;;;12.70;98.60;;;;;;5091418;28;20169;-74
2021/04/01 05:06:56;;;;;;;16.10;10.63;;;12.20;98.20;;;;;;5091444;28;20450;-73
2021/04/01 05:09:22;;;;;;;17.60;10.20;;;12.10;98.90;;;;;;5091481;28;20422;-74
2021/04/01 05:11:48;;;;;;;18.40;11.70;;;12.10;98.20;;;;;;5091806;28;20420;-74
2021/04/01 05:14:13;;;;;;;18.70;11.07;;;12.10;98.70;;;;;;5091666;28;20189;-74
2021/04/01 05:16:39;;;;;;;12.60;10.80;;;12.10;98.40;;;;;;5091029;28;20887;-74
2021/04/01 05:19:05;;;;;;;16.10;10.90;;;12.10;98.50;;;;;;5091267;28;20173;-74
2021/04/01 05:21:55;;;;;;;13.07;10.03;;;12.00;98.70;;;;;;5091796;28;20254;-73
2021/04/01 05:24:24;;;;;;;14.20;10.63;;;12.10;98.50;;;;;;5091319;28;20449;-73
2021/04/01 05:29:26;;;;;;;18.50;11.80;;;12.10;98.70;;;;;;5091771;28;20403;-73
2021/04/01 05:31:52;;;;;;;12.73;9.97;;;12.10;98.70;;;;;;5090846;28;20427;-73
2021/04/01 05:34:18;;;;;;;13.50;10.57;;;12.10;98.70;;;;;;5091288;28;20461;-73
2021/04/01 05:36:45;;;;;;;15.13;10.80;;;12.10;98.70;;;;;;5094604;28;20450;-74
2021/04/01 05:39:19;;;;;;;17.37;10.37;;;12.20;98.70;;;;;;5094911;28;20412;-73
2021/04/01 05:41:50;;;;;;;16.50;10.83;;;12.30;98.70;;;;;;5094656;28;20423;-73
2021/04/01 05:44:27;;;;;;;13.63;10.50;;;12.30;98.50;;;;;;5094662;28;20948;-74
2021/04/01 05:49:37;;;;;;;18.00;12.53;;;12.50;98.80;;;;;;5094771;28;20394;-73
2021/04/01 05:52:45;;;;;;;23.70;13.57;;;12.50;98.40;;;;;;5094711;28;21027;-73
2021/04/01 05:55:52;;;;;;;16.17;12.50;;;12.40;98.70;;;;;;5094359;28;20890;-73
2021/04/01 05:58:12;;;;;;;19.10;10.93;;;12.30;98.70;;;;;;5094171;28;20403;-73
2021/04/01 06:03:43;;;;;;;13.20;9.70;;;12.50;98.40;;;;;;5094902;28;20394;-74
2021/04/01 06:06:12;;;;;;;16.70;12.37;;;12.60;98.40;;;;;;5094479;28;20443;-74
2021/04/01 06:08:50;;;;;;;15.57;11.27;;;12.60;98.40;;;;;;5094338;28;20445;-73
2021/04/01 06:11:19;;;;;;;19.50;11.77;;;12.70;98.50;;;;;;5094258;28;20420;-74
2021/04/01 06:14:11;;;;;;;14.07;10.70;;;12.80;98.30;;;;;;5094204;28;20498;-73
2021/04/01 06:16:42;;;;;;;14.43;10.63;;;12.90;98.30;;;;;;5094099;28;21005;-73
2021/04/01 06:19:13;;;;;;;13.47;9.77;;;12.80;98.20;;;;;;5094115;28;20408;-74
2021/04/01 06:21:47;;;;;;;18.90;11.90;;;12.90;98.80;;;;;;5094103;28;20416;-74
2021/04/01 06:24:31;;;;;;;13.17;10.83;;;12.90;98.40;;;;;;5094038;28;20471;-74
2021/04/01 06:27:11;;;;;;;16.13;11.73;;;12.90;98.80;;;;;;5093910;28;20503;-74
2021/04/01 06:29:39;;;;;;;13.80;10.57;;;12.80;98.60;;;;;;5094262;28;20404;-74
2021/04/01 06:32:17;;;;;;;16.70;11.47;;;12.80;98.70;;;;;;5093654;28;20427;-75
2021/04/01 06:34:43;;;;;;;16.27;10.80;;;12.90;98.90;;;;;;5094013;28;20439;-74
2021/04/01 06:40:02;;;;;;;19.50;11.00;;;13.00;99.20;;;;;;5094102;28;20985;-74
2021/04/01 06:42:37;;;;;;;16.80;10.97;;;12.90;99.20;;;;;;5093550;28;20454;-73
2021/04/01 06:45:09;;;;;;;16.43;10.90;;;12.70;99.20;;;;;;5093868;28;20532;-74
2021/04/01 06:47:35;;;;;;;15.93;10.70;;;12.70;99.70;;;;;;5093101;28;20400;-75
2021/04/01 06:50:19;;;;;;;18.43;10.93;;;12.90;99.50;;;;;;5092443;28;20487;-75
2021/04/01 06:53:06;;;;;;;17.37;12.00;;;13.00;99.50;;;;;;5093744;28;20418;-74
2021/04/01 06:55:46;;;;;;;17.00;11.00;;;13.00;99.10;;;;;;5093669;28;20396;-74
2021/04/01 07:03:38;;;;;;;16.30;11.73;;;13.20;99.40;;;;;;5093105;28;20945;-74
2021/04/01 07:06:07;;;;;;;17.03;11.10;;;13.10;99.00;;;;;;5093309;28;20538;-74
2021/04/01 07:11:34;;;;;;;13.30;10.37;;;13.10;98.90;;;;;;5093168;28;20969;-74
2021/04/01 07:14:13;;;;;;;16.50;13.13;;;13.40;98.90;;;;;;5092897;28;20916;-74
2021/04/01 07:16:53;;;;;;;17.57;11.80;;;13.60;98.50;;;;;;5092990;28;20396;-74
2021/04/01 07:19:30;;;;;;;21.23;12.20;;;13.60;98.60;;;;;;5091658;28;20899;-75
2021/04/01 07:45:01;;;;;;;21.33;12.27;;;14.40;97.90;;;;;;5092662;28;20395;-74
2021/04/01 07:47:32;;;;;;;21.00;12.73;;;14.70;98.00;;;;;;5092316;28;20847;-74
2021/04/01 07:50:20;;;;;;;21.37;14.30;;;14.80;97.20;;;;;;5093025;28;20458;-74
2021/04/01 07:52:59;;;;;;;18.90;13.13;;;15.00;97.40;;;;;;5092294;28;20782;-74
2021/04/01 07:55:34;;;;;;;20.90;13.60;;;15.00;97.80;;;;;;5092440;28;20403;-74
2021/04/01 08:06:16;;;;;;;22.27;14.40;;;14.90;96.30;;;;;;5062972;28;20832;-74
2021/04/01 08:08:48;;;;;;;20.00;13.60;;;15.40;96.10;;;;;;5092782;28;20407;-74
2021/04/01 08:11:33;;;;;;;21.10;13.23;;;15.40;95.30;;;;;;5093904;28;20561;-75
2021/04/01 08:14:15;;;;;;;21.60;13.47;;;15.60;95.90;;;;;;5093825;28;20460;-75
2021/04/01 08:16:59;;;;;;;20.33;13.13;;;15.70;96.10;;;;;;5092025;28;20734;-75
2021/04/01 08:19:32;;;;;;;19.97;14.67;;;15.50;95.60;;;;;;5092047;28;20490;-74
2021/04/01 08:22:00;;;;;;;24.73;14.50;;;15.50;95.40;;;;;;5092015;28;20542;-75
2021/04/01 08:24:31;;;;;;;27.87;15.37;;;15.40;95.20;;;;;;5092003;28;20484;-75
2021/04/01 08:27:14;;;;;;;19.20;14.00;;;15.50;95.30;;;;;;5091647;28;20444;-75
2021/04/01 08:33:00;;;;;;;24.23;15.70;;;15.70;94.80;;;;;;5093099;28;20459;-74
2021/04/01 08:35:27;;;;;;;23.80;15.60;;;15.70;95.30;;;;;;5092219;28;20422;-75
2021/04/01 08:38:11;;;;;;;30.87;16.77;;;15.70;94.70;;;;;;5091702;28;20425;-74
2021/04/01 08:40:39;;;;;;;30.43;17.07;;;15.70;94.40;;;;;;5092868;28;20904;-73
2021/04/01 08:43:34;;;;;;;29.87;17.00;;;15.70;94.10;;;;;;5091410;28;20899;-75
2021/04/01 08:46:23;;;;;;;26.33;18.67;;;15.60;93.30;;;;;;5091678;28;20963;-75
2021/04/01 08:49:00;;;;;;;26.73;18.33;;;15.50;93.30;;;;;;5092392;28;20401;-73
2021/04/01 08:51:54;;;;;;;45.37;28.13;;;15.80;93.70;;;;;;5092030;28;20424;-74
2021/04/01 08:54:41;;;;;;;28.73;19.10;;;15.80;92.70;;;;;;5092986;28;20398;-73
2021/04/01 08:57:20;;;;;;;31.67;19.03;;;15.60;92.70;;;;;;5090625;28;20506;-74
2021/04/01 09:00:03;;;;;;;26.57;18.07;;;15.60;92.00;;;;;;5093728;28;20881;-75
2021/04/01 09:02:32;;;;;;;25.30;18.10;;;15.60;92.20;;;;;;5091841;28;20430;-74
2021/04/01 09:05:00;;;;;;;30.13;17.47;;;15.70;92.30;;;;;;5091508;28;20407;-74
2021/04/01 09:07:38;;;;;;;28.57;18.80;;;15.60;92.20;;;;;;5091525;28;20458;-75
2021/04/01 09:10:33;;;;;;;27.97;17.67;;;15.50;92.80;;;;;;5094753;28;20403;-75
2021/04/01 09:13:06;;;;;;;24.00;17.03;;;15.60;92.80;;;;;;5095548;28;20431;-74
2021/04/01 09:15:53;;;;;;;29.10;18.07;;;15.80;93.00;;;;;;5095313;28;20803;-74
2021/04/01 09:18:27;;;;;;;29.33;19.40;;;15.80;93.20;;;;;;5095089;28;20483;-72
2021/04/01 09:20:56;;;;;;;28.93;18.97;;;15.90;93.90;;;;;;5094962;28;20420;-73
2021/04/01 09:23:38;;;;;;;31.17;19.60;;;16.00;95.10;;;;;;5095025;28;20408;-73
2021/04/01 09:26:09;;;;;;;29.53;19.00;;;16.00;95.20;;;;;;5095062;28;20532;-73
2021/04/01 09:28:41;;;;;;;32.80;20.30;;;16.00;96.00;;;;;;5094714;28;20418;-73
2021/04/01 09:31:08;;;;;;;30.60;20.07;;;16.00;95.70;;;;;;5095052;28;20859;-74
2021/04/01 09:33:36;;;;;;;31.83;20.30;;;15.90;95.30;;;;;;5094806;28;20403;-73
2021/04/01 09:36:18;;;;;;;29.00;19.73;;;16.10;96.60;;;;;;5095383;28;20427;-73
2021/04/01 09:38:51;;;;;;;29.80;20.33;;;16.50;96.30;;;;;;5093770;28;20884;-74
2021/04/01 09:41:32;;;;;;;30.23;19.03;;;16.20;96.40;;;;;;5094682;28;20528;-73
2021/04/01 09:44:04;;;;;;;31.17;20.50;;;16.60;97.30;;;;;;5094916;28;20490;-73
2021/04/01 09:46:31;;;;;;;28.87;19.13;;;16.70;97.40;;;;;;5094581;28;20893;-72
2021/04/01 09:49:03;;;;;;;31.90;19.90;;;16.70;96.70;;;;;;5095228;28;20402;-74
2021/04/01 09:51:31;;;;;;;34.67;21.00;;;16.60;96.70;;;;;;5094455;28;20422;-72
2021/04/01 09:53:58;;;;;;;29.00;18.80;;;16.60;96.70;;;;;;5095275;28;20411;-73
2021/04/01 09:56:29;;;;;;;29.93;20.47;;;17.00;96.80;;;;;;5095023;28;20944;-73
2021/04/01 09:58:56;;;;;;;31.07;20.37;;;17.10;97.20;;;;;;5094869;28;20459;-73
2021/04/01 10:01:29;;;;;;;37.73;19.30;;;17.40;96.80;;;;;;5094234;28;20420;-74
2021/04/01 10:03:58;;;;;;;25.10;19.13;;;17.30;95.60;;;;;;5093257;28;20423;-74
2021/04/01 10:06:44;;;;;;;28.20;18.60;;;17.10;96.10;;;;;;5093986;28;20539;-74
2021/04/01 10:09:10;;;;;;;28.60;18.90;;;17.30;95.60;;;;;;5094598;28;20407;-73
2021/04/01 10:11:44;;;;;;;28.30;19.43;;;17.40;95.70;;;;;;5093916;28;20483;-73
2021/04/01 10:14:11;;;;;;;31.97;21.20;;;17.70;95.80;;;;;;5094686;28;20907;-73
2021/04/01 10:16:58;;;;;;;34.73;18.80;;;17.40;95.30;;;;;;5094113;28;20924;-74
2021/04/01 10:19:29;;;;;;;27.73;19.00;;;17.20;96.30;;;;;;5094072;28;20429;-74
2021/04/01 10:21:55;;;;;;;33.07;20.67;;;16.90;96.20;;;;;;5093318;28;20885;-74
2021/04/01 10:24:27;;;;;;;31.23;21.00;;;16.90;96.50;;;;;;5094041;28;20492;-74
2021/04/01 10:32:13;;;;;;;29.57;19.80;;;17.50;95.20;;;;;;5094298;28;20453;-74
2021/04/01 10:34:52;;;;;;;29.63;20.77;;;17.10;95.10;;;;;;5093840;28;20460;-74
2021/04/01 10:37:21;;;;;;;33.93;22.43;;;17.00;94.90;;;;;;5093697;28;20407;-74
2021/04/01 10:39:46;;;;;;;30.50;20.00;;;17.00;94.70;;;;;;5093526;28;20421;-74
2021/04/01 10:42:14;;;;;;;31.90;22.07;;;17.10;94.20;;;;;;5093466;28;20513;-74
2021/04/01 10:44:41;;;;;;;32.23;22.80;;;16.90;94.40;;;;;;5093386;28;20179;-74
2021/04/01 10:47:13;;;;;;;33.10;20.83;;;16.90;94.50;;;;;;5093432;28;20453;-74
2021/04/01 10:49:39;;;;;;;31.30;21.30;;;17.20;94.10;;;;;;5093541;28;20401;-73
2021/04/01 10:52:13;;;;;;;37.43;22.80;;;17.00;93.80;;;;;;5093433;28;20429;-74
2021/04/01 10:54:44;;;;;;;35.83;21.63;;;16.80;93.60;;;;;;5093215;28;20845;-73
2021/04/01 10:57:31;;;;;;;33.63;21.30;;;16.70;93.80;;;;;;5093267;28;20402;-73
2021/04/01 11:00:06;;;;;;;31.77;20.70;;;17.00;93.20;;;;;;5093476;28;20913;-73
2021/04/01 11:02:38;;;;;;;35.40;22.90;;;16.80;92.90;;;;;;5093514;28;20940;-73
2021/04/01 11:05:05;;;;;;;34.13;22.10;;;16.70;93.40;;;;;;5093159;28;20403;-73
2021/04/01 11:07:43;;;;;;;31.20;21.80;;;16.90;93.50;;;;;;5092917;28;20454;-74
2021/04/01 11:10:10;;;;;;;36.53;22.53;;;17.10;93.20;;;;;;5093239;28;20543;-73
2021/04/01 11:12:36;;;;;;;33.77;20.97;;;17.30;93.30;;;;;;5093240;28;20953;-74
2021/04/01 11:15:07;;;;;;;31.30;20.53;;;17.40;93.50;;;;;;5093061;28;20471;-73
2021/04/01 11:17:39;;;;;;;30.80;21.07;;;17.60;94.60;;;;;;5092714;28;20904;-74
2021/04/01 11:20:06;;;;;;;31.20;20.37;;;17.50;92.50;;;;;;5092910;28;20413;-73
2021/04/01 11:22:31;;;;;;;31.47;21.97;;;17.20;92.10;;;;;;5092977;28;20430;-73
2021/04/01 11:25:08;;;;;;;34.13;21.83;;;17.20;92.30;;;;;;5093065;28;20404;-73
2021/04/01 11:27:35;;;;;;;30.00;20.83;;;17.40;92.20;;;;;;5092571;28;20691;-73
2021/04/01 11:30:01;;;;;;;32.47;20.67;;;17.80;93.00;;;;;;5092513;28;20409;-73
2021/04/01 11:32:28;;;;;;;29.37;20.00;;;18.10;93.20;;;;;;5091709;28;20480;-73
2021/04/01 11:35:00;;;;;;;37.60;21.50;;;18.10;92.30;;;;;;5093051;28;20211;-74
2021/04/01 11:37:34;;;;;;;32.30;20.97;;;18.00;91.60;;;;;;5092392;28;20464;-73
2021/04/01 11:40:07;;;;;;;31.00;22.03;;;18.10;91.30;;;;;;5092535;28;20407;-74
2021/04/01 11:42:33;;;;;;;33.17;20.83;;;17.80;91.60;;;;;;5092343;28;20423;-73
2021/04/01 11:45:01;;;;;;;35.73;21.90;;;17.60;91.80;;;;;;5092399;28;20410;-73
2021/04/01 11:47:30;;;;;;;30.47;21.40;;;17.60;91.50;;;;;;5092343;28;20987;-73
2021/04/01 11:49:55;;;;;;;31.37;20.60;;;17.60;92.20;;;;;;5092213;28;20400;-73
2021/04/01 11:52:23;;;;;;;29.07;19.93;;;17.70;91.20;;;;;;5092205;28;20800;-73
2021/04/01 11:54:51;;;;;;;32.13;20.97;;;17.70;91.40;;;;;;5092340;28;20161;-74
2021/04/01 11:57:19;;;;;;;33.10;20.17;;;17.80;91.50;;;;;;5092088;28;20407;-73
2021/04/01 11:59:54;;;;;;;32.47;22.00;;;17.90;91.80;;;;;;5092143;28;20404;-73
2021/04/01 12:02:22;;;;;;;38.80;22.93;;;17.70;90.80;;;;;;5092358;28;20436;-73
2021/04/01 12:04:50;;;;;;;37.23;22.17;;;17.50;90.90;;;;;;5092487;28;20404;-73
2021/04/01 12:07:16;;;;;;;36.70;22.37;;;17.70;92.00;;;;;;5091902;28;20454;-74
2021/04/01 12:09:47;;;;;;;33.13;20.17;;;17.80;91.20;;;;;;5092048;28;20410;-73
2021/04/01 12:12:12;;;;;;;35.53;21.90;;;17.90;90.10;;;;;;5092035;28;20692;-73
2021/04/01 12:14:39;;;;;;;36.87;22.30;;;18.10;89.20;;;;;;5091950;28;20463;-73
2021/04/01 12:17:06;;;;;;;36.17;20.80;;;18.30;90.50;;;;;;5091684;28;20574;-73
2021/04/01 12:19:32;;;;;;;38.47;22.73;;;18.60;89.80;;;;;;5091923;28;20416;-73
2021/04/01 12:22:07;;;;;;;39.80;22.00;;;18.40;87.80;;;;;;5091667;28;20932;-74
2021/04/01 12:24:33;;;;;;;38.33;21.93;;;18.10;86.90;;;;;;5091884;28;20406;-73
2021/04/01 12:26:58;;;;;;;34.13;21.30;;;18.10;87.60;;;;;;5090160;28;20518;-73
2021/04/01 12:29:24;;;;;;;31.27;21.90;;;18.60;87.90;;;;;;5073198;28;20662;-73
2021/04/01 12:31:57;;;;;;;33.37;21.87;;;18.40;85.80;;;;;;5071538;28;20186;-72
2021/04/01 12:34:28;;;;;;;32.50;20.53;;;18.40;86.60;;;;;;5071697;28;20163;-74
2021/04/01 12:36:54;;;;;;;35.70;22.00;;;18.40;84.50;;;;;;5071142;28;20420;-75
2021/04/01 12:39:34;;;;;;;35.50;22.50;;;18.40;84.80;;;;;;5071662;28;20409;-76
2021/04/01 12:42:00;;;;;;;33.80;19.73;;;18.50;85.30;;;;;;5071570;28;20493;-74
2021/04/01 12:44:37;;;;;;;33.57;19.73;;;18.80;84.40;;;;;;5072411;28;20420;-74
2021/04/01 12:47:03;;;;;;;35.70;21.77;;;18.80;84.30;;;;;;5075380;28;20498;-73
2021/04/01 12:49:36;;;;;;;33.00;21.30;;;19.00;87.80;;;;;;5076069;28;20397;-76
2021/04/01 12:52:03;;;;;;;34.00;23.83;;;19.00;90.30;;;;;;5075858;28;20765;-74
2021/04/01 12:54:38;;;;;;;35.90;23.43;;;19.20;90.30;;;;;;5074272;28;20442;-76
2021/04/01 12:57:09;;;;;;;31.77;22.03;;;19.10;90.40;;;;;;5074838;28;20492;-73
2021/04/01 12:59:42;;;;;;;34.67;22.40;;;19.00;91.00;;;;;;5087536;28;20767;-76
2021/04/01 13:02:11;;;;;;;31.63;22.20;;;18.90;91.50;;;;;;5085978;28;20453;-78
2021/04/01 13:04:39;;;;;;;35.53;23.97;;;18.40;92.30;;;;;;5085185;28;20412;-73
2021/04/01 13:09:48;;;;;;;28.93;22.23;;;18.20;92.80;;;;;;5075390;28;20404;-75
2021/04/01 13:12:22;;;;;;;37.33;23.30;;;18.20;92.60;;;;;;5075036;28;20414;-75
2021/04/01 13:14:48;;;;;;;32.30;22.23;;;18.30;91.40;;;;;;5075358;28;20564;-76
2021/04/01 13:17:15;;;;;;;37.60;24.23;;;18.30;91.40;;;;;;5074965;28;20900;-75
2021/04/01 13:19:40;;;;;;;36.70;22.87;;;18.60;90.90;;;;;;5075306;28;20415;-76
2021/04/01 13:22:09;;;;;;;34.07;23.33;;;18.50;90.70;;;;;;5075242;28;20787;-75
2021/04/01 13:27:08;;;;;;;42.00;24.03;;;18.50;90.50;;;;;;5061675;28;20487;-75
2021/04/01 13:29:37;;;;;;;42.00;24.70;;;18.50;90.40;;;;;;5075075;28;20498;-75
2021/04/01 13:32:28;;;;;;;37.33;24.80;;;18.10;88.30;;;;;;5074457;28;20436;-75
2021/04/01 13:35:03;;;;;;;40.53;23.03;;;17.80;86.20;;;;;;5074327;28;20400;-75
2021/04/01 13:37:39;;;;;;;35.53;24.80;;;17.90;88.10;;;;;;5074527;28;20938;-75
2021/04/01 13:40:11;;;;;;;34.80;25.27;;;17.90;91.30;;;;;;5074804;28;20405;-74
2021/04/01 13:42:40;;;;;;;38.13;24.30;;;17.90;92.60;;;;;;5074868;28;20426;-75
2021/04/01 13:45:18;;;;;;;37.27;26.80;;;17.80;93.20;;;;;;5068990;28;20532;-75
2021/04/01 13:47:49;;;;;;;35.63;25.70;;;17.80;94.30;;;;;;5067576;28;20463;-74
2021/04/01 13:50:18;;;;;;;41.77;25.87;;;17.80;95.40;;;;;;5074653;28;20761;-75
2021/04/01 13:53:06;;;;;;;35.70;25.20;;;17.40;96.10;;;;;;5077048;28;20827;-80
2021/04/01 13:55:37;;;;;;;33.70;24.77;;;17.10;97.00;;;;;;5076789;28;20403;-75
2021/04/01 14:11:41;;;;;;;38.40;27.10;;;17.10;96.70;;;;;;5094291;28;20479;-73
2021/04/01 14:14:08;;;;;;;46.37;30.50;;;17.10;96.70;;;;;;5076019;28;20455;-73
2021/04/01 14:16:34;;;;;;;41.10;28.37;;;16.70;96.30;;;;;;5072483;28;20477;-74